sensor_id;sensor_type;location;lat;lon;timestamp;temperature;humidity
24686;DHT22;12804;51.176;4.452;2024-02-15T00:00:22;12.60;99.90
24686;DHT22;12804;51.176;4.452;2024-02-15T00:02:48;12.70;99.90
24686;DHT22;12804;51.176;4.452;2024-02-15T00:05:14;12.60;99.90
24686;DHT22;12804;51.176;4.452;2024-02-15T00:07:43;12.60;99.90
24686;DHT22;12804;51.176;4.452;2024-02-15T00:10:09;12.70;99.90
24686;DHT22;12804;51.176;4.452;2024-02-15T00:12:35;12.70;99.90
24686;DHT22;12804;51.176;4.452;2024-02-15T00:15:01;12.60;99.90
24686;DHT22;12804;51.176;4.452;2024-02-15T00:17:27;12.60;99.90
24686;DHT22;12804;51.176;4.452;2024-02-15T00:19:55;12.60;99.90
24686;DHT22;12804;51.176;4.452;2024-02-15T00:22:21;12.60;99.90
24686;DHT22;12804;51.176;4.452;2024-02-15T00:24:47;12.60;99.90
24686;DHT22;12804;51.176;4.452;2024-02-15T00:27:15;12.70;99.90
24686;DHT22;12804;51.176;4.452;2024-02-15T00:29:41;12.70;99.90
24686;DHT22;12804;51.176;4.452;2024-02-15T00:32:09;12.70;99.90
24686;DHT22;12804;51.176;4.452;2024-02-15T00:34:36;12.70;99.90
24686;DHT22;12804;51.176;4.452;2024-02-15T00:37:04;12.70;99.90
24686;DHT22;12804;51.176;4.452;2024-02-15T00:39:31;12.70;99.90
24686;DHT22;12804;51.176;4.452;2024-02-15T00:41:57;12.70;99.90
24686;DHT22;12804;51.176;4.452;2024-02-15T00:44:26;12.80;99.90
24686;DHT22;12804;51.176;4.452;2024-02-15T00:46:52;12.80;99.90
24686;DHT22;12804;51.176;4.452;2024-02-15T00:49:18;12.80;99.90
24686;DHT22;12804;51.176;4.452;2024-02-15T00:51:47;12.80;99.90
24686;DHT22;12804;51.176;4.452;2024-02-15T00:54:14;12.80;99.90
24686;DHT22;12804;51.176;4.452;2024-02-15T00:56:40;12.70;99.90
24686;DHT22;12804;51.176;4.452;2024-02-15T00:59:06;12.80;99.90
24686;DHT22;12804;51.176;4.452;2024-02-15T01:01:32;12.80;99.90
24686;DHT22;12804;51.176;4.452;2024-02-15T01:03:58;12.70;99.90
24686;DHT22;12804;51.176;4.452;2024-02-15T01:06:23;12.70;99.90
24686;DHT22;12804;51.176;4.452;2024-02-15T01:08:49;12.80;99.90
24686;DHT22;12804;51.176;4.452;2024-02-15T01:11:15;12.80;99.90
24686;DHT22;12804;51.176;4.452;2024-02-15T01:13:42;12.70;99.90
24686;DHT22;12804;51.176;4.452;2024-02-15T01:16:09;12.80;99.90
24686;DHT22;12804;51.176;4.452;2024-02-15T01:18:35;12.70;99.90
24686;DHT22;12804;51.176;4.452;2024-02-15T01:21:01;12.70;99.90
24686;DHT22;12804;51.176;4.452;2024-02-15T01:23:27;12.70;99.90
24686;DHT22;12804;51.176;4.452;2024-02-15T01:25:53;12.70;99.90
24686;DHT22;12804;51.176;4.452;2024-02-15T01:28:19;12.80;99.90
24686;DHT22;12804;51.176;4.452;2024-02-15T01:30:45;12.70;99.90
24686;DHT22;12804;51.176;4.452;2024-02-15T01:33:11;12.70;99.90
24686;DHT22;12804;51.176;4.452;2024-02-15T01:35:37;12.80;99.90
24686;DHT22;12804;51.176;4.452;2024-02-15T01:38:05;12.80;99.90
24686;DHT22;12804;51.176;4.452;2024-02-15T01:40:31;12.80;99.90
24686;DHT22;12804;51.176;4.452;2024-02-15T01:42:57;12.90;99.90
24686;DHT22;12804;51.176;4.452;2024-02-15T01:45:24;12.90;99.90
24686;DHT22;12804;51.176;4.452;2024-02-15T01:47:52;12.80;99.90
24686;DHT22;12804;51.176;4.452;2024-02-15T01:50:19;12.90;99.90
24686;DHT22;12804;51.176;4.452;2024-02-15T01:52:48;12.90;99.90
24686;DHT22;12804;51.176;4.452;2024-02-15T01:55:16;12.90;99.90
24686;DHT22;12804;51.176;4.452;2024-02-15T01:57:45;12.90;99.90
24686;DHT22;12804;51.176;4.452;2024-02-15T02:00:15;12.90;99.90
24686;DHT22;12804;51.176;4.452;2024-02-15T02:02:44;13.00;99.90
24686;DHT22;12804;51.176;4.452;2024-02-15T02:05:10;13.00;99.90
24686;DHT22;12804;51.176;4.452;2024-02-15T02:07:37;13.00;99.90
24686;DHT22;12804;51.176;4.452;2024-02-15T02:10:03;13.00;99.90
24686;DHT22;12804;51.176;4.452;2024-02-15T02:12:30;13.00;99.90
24686;DHT22;12804;51.176;4.452;2024-02-15T02:14:56;13.00;99.90
24686;DHT22;12804;51.176;4.452;2024-02-15T02:17:22;12.90;99.90
24686;DHT22;12804;51.176;4.452;2024-02-15T02:19:49;12.90;99.90
24686;DHT22;12804;51.176;4.452;2024-02-15T02:22:18;12.90;99.90
24686;DHT22;12804;51.176;4.452;2024-02-15T02:25:06;12.90;99.90
24686;DHT22;12804;51.176;4.452;2024-02-15T02:27:35;12.80;99.90
24686;DHT22;12804;51.176;4.452;2024-02-15T02:30:12;12.80;99.90
24686;DHT22;12804;51.176;4.452;2024-02-15T02:32:43;12.80;99.90
24686;DHT22;12804;51.176;4.452;2024-02-15T02:35:09;12.80;99.90
24686;DHT22;12804;51.176;4.452;2024-02-15T02:37:42;12.70;99.90
24686;DHT22;12804;51.176;4.452;2024-02-15T02:40:09;12.70;99.90
24686;DHT22;12804;51.176;4.452;2024-02-15T02:42:55;12.70;99.90
24686;DHT22;12804;51.176;4.452;2024-02-15T02:45:22;12.70;99.90
24686;DHT22;12804;51.176;4.452;2024-02-15T02:47:52;12.60;99.90
24686;DHT22;12804;51.176;4.452;2024-02-15T02:50:19;12.60;99.90
24686;DHT22;12804;51.176;4.452;2024-02-15T02:52:45;12.60;99.90
24686;DHT22;12804;51.176;4.452;2024-02-15T02:55:14;12.50;99.90
24686;DHT22;12804;51.176;4.452;2024-02-15T02:57:40;12.50;99.90
24686;DHT22;12804;51.176;4.452;2024-02-15T03:00:11;12.50;99.90
24686;DHT22;12804;51.176;4.452;2024-02-15T03:02:43;12.50;99.90
24686;DHT22;12804;51.176;4.452;2024-02-15T03:05:10;12.50;99.90
24686;DHT22;12804;51.176;4.452;2024-02-15T03:07:37;12.40;99.90
24686;DHT22;12804;51.176;4.452;2024-02-15T03:10:07;12.40;99.90
24686;DHT22;12804;51.176;4.452;2024-02-15T03:12:34;12.30;99.90
24686;DHT22;12804;51.176;4.452;2024-02-15T03:15:04;12.30;99.90
24686;DHT22;12804;51.176;4.452;2024-02-15T03:17:30;12.30;99.90
24686;DHT22;12804;51.176;4.452;2024-02-15T03:19:58;12.30;99.90
24686;DHT22;12804;51.176;4.452;2024-02-15T03:22:25;12.40;99.90
24686;DHT22;12804;51.176;4.452;2024-02-15T03:24:51;12.40;99.90
24686;DHT22;12804;51.176;4.452;2024-02-15T03:27:17;12.40;99.90
24686;DHT22;12804;51.176;4.452;2024-02-15T03:29:43;12.30;99.90
24686;DHT22;12804;51.176;4.452;2024-02-15T03:32:09;12.30;99.90
24686;DHT22;12804;51.176;4.452;2024-02-15T03:34:36;12.30;99.90
24686;DHT22;12804;51.176;4.452;2024-02-15T03:37:05;12.30;99.90
24686;DHT22;12804;51.176;4.452;2024-02-15T03:39:30;12.30;99.90
24686;DHT22;12804;51.176;4.452;2024-02-15T03:41:58;12.20;99.90
24686;DHT22;12804;51.176;4.452;2024-02-15T03:44:24;12.20;99.90
24686;DHT22;12804;51.176;4.452;2024-02-15T03:46:52;12.30;99.90
24686;DHT22;12804;51.176;4.452;2024-02-15T03:49:19;12.20;99.90
24686;DHT22;12804;51.176;4.452;2024-02-15T03:51:45;12.30;99.90
24686;DHT22;12804;51.176;4.452;2024-02-15T03:54:12;12.30;99.90
24686;DHT22;12804;51.176;4.452;2024-02-15T03:56:50;12.30;99.90
24686;DHT22;12804;51.176;4.452;2024-02-15T03:59:21;12.30;99.90
24686;DHT22;12804;51.176;4.452;2024-02-15T04:01:51;12.30;99.90
24686;DHT22;12804;51.176;4.452;2024-02-15T04:04:17;12.30;99.90
24686;DHT22;12804;51.176;4.452;2024-02-15T04:06:43;12.30;99.90
24686;DHT22;12804;51.176;4.452;2024-02-15T04:09:09;12.30;99.90
24686;DHT22;12804;51.176;4.452;2024-02-15T04:11:36;12.30;99.90
24686;DHT22;12804;51.176;4.452;2024-02-15T04:14:03;12.30;99.90
24686;DHT22;12804;51.176;4.452;2024-02-15T04:16:29;12.30;99.90
24686;DHT22;12804;51.176;4.452;2024-02-15T04:18:56;12.30;99.90
24686;DHT22;12804;51.176;4.452;2024-02-15T04:21:23;12.40;99.90
24686;DHT22;12804;51.176;4.452;2024-02-15T04:23:49;12.40;99.90
24686;DHT22;12804;51.176;4.452;2024-02-15T04:26:17;12.40;99.90
24686;DHT22;12804;51.176;4.452;2024-02-15T04:28:45;12.30;99.90
24686;DHT22;12804;51.176;4.452;2024-02-15T04:31:14;12.30;99.90
24686;DHT22;12804;51.176;4.452;2024-02-15T04:33:40;12.30;99.90
24686;DHT22;12804;51.176;4.452;2024-02-15T04:36:06;12.30;99.90
24686;DHT22;12804;51.176;4.452;2024-02-15T04:38:32;12.30;99.90
24686;DHT22;12804;51.176;4.452;2024-02-15T04:41:01;12.30;99.90
24686;DHT22;12804;51.176;4.452;2024-02-15T04:43:29;12.30;99.90
24686;DHT22;12804;51.176;4.452;2024-02-15T04:45:56;12.30;99.90
24686;DHT22;12804;51.176;4.452;2024-02-15T04:48:21;12.30;99.90
24686;DHT22;12804;51.176;4.452;2024-02-15T04:50:50;12.40;99.90
24686;DHT22;12804;51.176;4.452;2024-02-15T04:53:17;12.30;99.90
24686;DHT22;12804;51.176;4.452;2024-02-15T04:55:42;12.30;99.90
24686;DHT22;12804;51.176;4.452;2024-02-15T04:58:09;12.30;99.90
24686;DHT22;12804;51.176;4.452;2024-02-15T05:00:36;12.30;99.90
24686;DHT22;12804;51.176;4.452;2024-02-15T05:03:03;12.30;99.90
24686;DHT22;12804;51.176;4.452;2024-02-15T05:05:29;12.30;99.90
24686;DHT22;12804;51.176;4.452;2024-02-15T05:07:58;12.30;99.90
24686;DHT22;12804;51.176;4.452;2024-02-15T05:10:27;12.30;99.90
24686;DHT22;12804;51.176;4.452;2024-02-15T05:12:52;12.30;99.90
24686;DHT22;12804;51.176;4.452;2024-02-15T05:15:19;12.30;99.90
24686;DHT22;12804;51.176;4.452;2024-02-15T05:17:48;12.20;99.90
24686;DHT22;12804;51.176;4.452;2024-02-15T05:20:15;12.30;99.90
24686;DHT22;12804;51.176;4.452;2024-02-15T05:22:41;12.30;99.90
24686;DHT22;12804;51.176;4.452;2024-02-15T05:25:11;12.20;99.90
24686;DHT22;12804;51.176;4.452;2024-02-15T05:27:38;12.30;99.90
24686;DHT22;12804;51.176;4.452;2024-02-15T05:30:04;12.30;99.90
24686;DHT22;12804;51.176;4.452;2024-02-15T05:32:33;12.30;99.90
24686;DHT22;12804;51.176;4.452;2024-02-15T05:35:00;12.30;99.90
24686;DHT22;12804;51.176;4.452;2024-02-15T05:37:27;12.30;99.90
24686;DHT22;12804;51.176;4.452;2024-02-15T05:39:53;12.20;99.90
24686;DHT22;12804;51.176;4.452;2024-02-15T05:42:19;12.30;99.90
24686;DHT22;12804;51.176;4.452;2024-02-15T05:44:45;12.20;99.90
24686;DHT22;12804;51.176;4.452;2024-02-15T05:47:11;12.30;99.90
24686;DHT22;12804;51.176;4.452;2024-02-15T05:49:37;12.20;99.90
24686;DHT22;12804;51.176;4.452;2024-02-15T05:52:03;12.20;99.90
24686;DHT22;12804;51.176;4.452;2024-02-15T05:54:29;12.20;99.90
24686;DHT22;12804;51.176;4.452;2024-02-15T05:56:55;12.20;99.90
24686;DHT22;12804;51.176;4.452;2024-02-15T05:59:21;12.30;99.90
24686;DHT22;12804;51.176;4.452;2024-02-15T06:01:47;12.20;99.90
24686;DHT22;12804;51.176;4.452;2024-02-15T06:04:15;12.20;99.90
24686;DHT22;12804;51.176;4.452;2024-02-15T06:06:41;12.20;99.90
24686;DHT22;12804;51.176;4.452;2024-02-15T06:09:07;12.20;99.90
24686;DHT22;12804;51.176;4.452;2024-02-15T06:11:33;12.20;99.90
24686;DHT22;12804;51.176;4.452;2024-02-15T06:13:58;12.30;99.90
24686;DHT22;12804;51.176;4.452;2024-02-15T06:16:24;12.20;99.90
24686;DHT22;12804;51.176;4.452;2024-02-15T06:18:50;12.20;99.90
24686;DHT22;12804;51.176;4.452;2024-02-15T06:21:16;12.20;99.90
24686;DHT22;12804;51.176;4.452;2024-02-15T06:23:43;12.20;99.90
24686;DHT22;12804;51.176;4.452;2024-02-15T06:26:09;12.20;99.90
24686;DHT22;12804;51.176;4.452;2024-02-15T06:28:37;12.20;99.90
24686;DHT22;12804;51.176;4.452;2024-02-15T06:31:21;12.20;99.90
24686;DHT22;12804;51.176;4.452;2024-02-15T06:34:06;12.20;99.90
24686;DHT22;12804;51.176;4.452;2024-02-15T06:36:53;12.20;99.90
24686;DHT22;12804;51.176;4.452;2024-02-15T06:39:38;12.20;99.90
24686;DHT22;12804;51.176;4.452;2024-02-15T06:42:07;12.30;99.90
24686;DHT22;12804;51.176;4.452;2024-02-15T06:44:33;12.20;99.90
24686;DHT22;12804;51.176;4.452;2024-02-15T06:47:00;12.20;99.90
24686;DHT22;12804;51.176;4.452;2024-02-15T06:49:25;12.30;99.90
24686;DHT22;12804;51.176;4.452;2024-02-15T06:51:52;12.20;99.90
24686;DHT22;12804;51.176;4.452;2024-02-15T06:54:18;12.30;99.90
24686;DHT22;12804;51.176;4.452;2024-02-15T06:56:47;12.30;99.90
24686;DHT22;12804;51.176;4.452;2024-02-15T06:59:13;12.30;99.90
24686;DHT22;12804;51.176;4.452;2024-02-15T07:01:42;12.30;99.90
24686;DHT22;12804;51.176;4.452;2024-02-15T07:04:09;12.30;99.90
24686;DHT22;12804;51.176;4.452;2024-02-15T07:06:38;12.30;99.90
24686;DHT22;12804;51.176;4.452;2024-02-15T07:09:07;12.30;99.90
24686;DHT22;12804;51.176;4.452;2024-02-15T07:11:33;12.30;99.90
24686;DHT22;12804;51.176;4.452;2024-02-15T07:14:02;12.20;99.90
24686;DHT22;12804;51.176;4.452;2024-02-15T07:16:30;12.20;99.90
24686;DHT22;12804;51.176;4.452;2024-02-15T07:18:56;12.20;99.90
24686;DHT22;12804;51.176;4.452;2024-02-15T07:21:22;12.20;99.90
24686;DHT22;12804;51.176;4.452;2024-02-15T07:23:53;12.30;99.90
24686;DHT22;12804;51.176;4.452;2024-02-15T07:26:20;12.30;99.90
24686;DHT22;12804;51.176;4.452;2024-02-15T07:28:51;12.30;99.90
24686;DHT22;12804;51.176;4.452;2024-02-15T07:31:18;12.40;99.90
24686;DHT22;12804;51.176;4.452;2024-02-15T07:33:44;12.30;99.90
24686;DHT22;12804;51.176;4.452;2024-02-15T07:36:10;12.40;99.90
24686;DHT22;12804;51.176;4.452;2024-02-15T07:38:36;12.40;99.90
24686;DHT22;12804;51.176;4.452;2024-02-15T07:41:02;12.40;99.90
24686;DHT22;12804;51.176;4.452;2024-02-15T07:43:28;12.40;99.90
24686;DHT22;12804;51.176;4.452;2024-02-15T07:45:54;12.50;99.90
24686;DHT22;12804;51.176;4.452;2024-02-15T07:48:20;12.60;99.90
24686;DHT22;12804;51.176;4.452;2024-02-15T07:50:46;12.60;99.90
24686;DHT22;12804;51.176;4.452;2024-02-15T07:53:11;12.60;99.90
24686;DHT22;12804;51.176;4.452;2024-02-15T07:55:39;12.60;99.90
24686;DHT22;12804;51.176;4.452;2024-02-15T07:58:05;12.70;99.90
24686;DHT22;12804;51.176;4.452;2024-02-15T08:00:30;12.80;99.90
24686;DHT22;12804;51.176;4.452;2024-02-15T08:02:56;12.80;99.90
24686;DHT22;12804;51.176;4.452;2024-02-15T08:05:25;12.90;99.90
24686;DHT22;12804;51.176;4.452;2024-02-15T08:07:51;12.90;99.90
24686;DHT22;12804;51.176;4.452;2024-02-15T08:10:18;12.90;99.90
24686;DHT22;12804;51.176;4.452;2024-02-15T08:12:45;12.80;99.90
24686;DHT22;12804;51.176;4.452;2024-02-15T08:15:12;12.80;99.90
24686;DHT22;12804;51.176;4.452;2024-02-15T08:17:39;12.90;99.90
24686;DHT22;12804;51.176;4.452;2024-02-15T08:20:10;12.90;99.90
24686;DHT22;12804;51.176;4.452;2024-02-15T08:22:36;12.90;99.90
24686;DHT22;12804;51.176;4.452;2024-02-15T08:25:12;13.00;99.90
24686;DHT22;12804;51.176;4.452;2024-02-15T08:27:39;13.10;99.90
24686;DHT22;12804;51.176;4.452;2024-02-15T08:30:13;13.10;99.90
24686;DHT22;12804;51.176;4.452;2024-02-15T08:32:43;13.00;99.90
24686;DHT22;12804;51.176;4.452;2024-02-15T08:35:10;13.10;99.90
24686;DHT22;12804;51.176;4.452;2024-02-15T08:37:36;13.00;99.90
24686;DHT22;12804;51.176;4.452;2024-02-15T08:40:05;12.90;99.90
24686;DHT22;12804;51.176;4.452;2024-02-15T08:42:38;12.80;99.90
24686;DHT22;12804;51.176;4.452;2024-02-15T08:45:04;12.80;99.90
24686;DHT22;12804;51.176;4.452;2024-02-15T08:47:30;12.70;99.90
24686;DHT22;12804;51.176;4.452;2024-02-15T08:49:56;12.70;99.90
24686;DHT22;12804;51.176;4.452;2024-02-15T08:52:24;12.60;99.90
24686;DHT22;12804;51.176;4.452;2024-02-15T08:54:52;12.60;99.90
24686;DHT22;12804;51.176;4.452;2024-02-15T08:57:18;12.60;99.90
24686;DHT22;12804;51.176;4.452;2024-02-15T08:59:44;12.80;99.90
24686;DHT22;12804;51.176;4.452;2024-02-15T09:02:10;12.80;99.90
24686;DHT22;12804;51.176;4.452;2024-02-15T09:04:36;12.80;99.90
24686;DHT22;12804;51.176;4.452;2024-02-15T09:07:02;12.80;99.90
24686;DHT22;12804;51.176;4.452;2024-02-15T09:09:29;12.70;99.90
24686;DHT22;12804;51.176;4.452;2024-02-15T09:11:57;12.60;99.90
24686;DHT22;12804;51.176;4.452;2024-02-15T09:14:22;12.50;99.90
24686;DHT22;12804;51.176;4.452;2024-02-15T09:16:48;12.50;99.90
24686;DHT22;12804;51.176;4.452;2024-02-15T09:19:14;12.50;99.90
24686;DHT22;12804;51.176;4.452;2024-02-15T09:21:40;12.40;99.90
24686;DHT22;12804;51.176;4.452;2024-02-15T09:24:06;12.40;99.90
24686;DHT22;12804;51.176;4.452;2024-02-15T09:26:31;12.40;99.90
24686;DHT22;12804;51.176;4.452;2024-02-15T09:28:57;12.30;99.90
24686;DHT22;12804;51.176;4.452;2024-02-15T09:31:23;12.40;99.90
24686;DHT22;12804;51.176;4.452;2024-02-15T09:33:50;12.40;99.90
24686;DHT22;12804;51.176;4.452;2024-02-15T09:36:16;12.40;99.90
24686;DHT22;12804;51.176;4.452;2024-02-15T09:38:42;12.50;99.90
24686;DHT22;12804;51.176;4.452;2024-02-15T09:41:08;12.60;99.90
24686;DHT22;12804;51.176;4.452;2024-02-15T09:43:35;12.60;99.90
24686;DHT22;12804;51.176;4.452;2024-02-15T09:46:00;12.70;99.90
24686;DHT22;12804;51.176;4.452;2024-02-15T09:48:30;12.90;99.90
24686;DHT22;12804;51.176;4.452;2024-02-15T09:50:57;12.90;99.90
24686;DHT22;12804;51.176;4.452;2024-02-15T09:53:24;13.00;99.90
24686;DHT22;12804;51.176;4.452;2024-02-15T09:55:53;13.20;99.90
24686;DHT22;12804;51.176;4.452;2024-02-15T09:58:20;13.30;99.90
24686;DHT22;12804;51.176;4.452;2024-02-15T10:00:49;13.40;99.90
24686;DHT22;12804;51.176;4.452;2024-02-15T10:03:18;13.60;99.90
24686;DHT22;12804;51.176;4.452;2024-02-15T10:05:48;13.90;99.90
24686;DHT22;12804;51.176;4.452;2024-02-15T10:08:15;14.00;99.90
24686;DHT22;12804;51.176;4.452;2024-02-15T10:10:41;14.00;99.90
24686;DHT22;12804;51.176;4.452;2024-02-15T10:13:13;14.00;99.90
24686;DHT22;12804;51.176;4.452;2024-02-15T10:15:40;14.00;99.90
24686;DHT22;12804;51.176;4.452;2024-02-15T10:18:10;14.00;99.90
24686;DHT22;12804;51.176;4.452;2024-02-15T10:20:41;14.10;99.90
24686;DHT22;12804;51.176;4.452;2024-02-15T10:23:14;14.20;99.90
24686;DHT22;12804;51.176;4.452;2024-02-15T10:25:43;14.20;99.90
24686;DHT22;12804;51.176;4.452;2024-02-15T10:28:13;14.20;99.90
24686;DHT22;12804;51.176;4.452;2024-02-15T10:30:44;14.30;99.90
24686;DHT22;12804;51.176;4.452;2024-02-15T10:33:19;14.30;99.90
24686;DHT22;12804;51.176;4.452;2024-02-15T10:35:48;14.30;99.90
24686;DHT22;12804;51.176;4.452;2024-02-15T10:38:14;14.20;99.90
24686;DHT22;12804;51.176;4.452;2024-02-15T10:40:41;14.30;99.90
24686;DHT22;12804;51.176;4.452;2024-02-15T10:43:09;14.40;99.90
24686;DHT22;12804;51.176;4.452;2024-02-15T10:45:39;14.50;99.90
24686;DHT22;12804;51.176;4.452;2024-02-15T10:48:11;14.60;99.90
24686;DHT22;12804;51.176;4.452;2024-02-15T10:50:39;14.60;99.90
24686;DHT22;12804;51.176;4.452;2024-02-15T10:53:30;14.70;99.90
24686;DHT22;12804;51.176;4.452;2024-02-15T10:58:33;14.80;99.90
24686;DHT22;12804;51.176;4.452;2024-02-15T11:01:01;14.90;99.90
24686;DHT22;12804;51.176;4.452;2024-02-15T11:03:39;15.00;99.90
24686;DHT22;12804;51.176;4.452;2024-02-15T11:06:09;15.00;99.90
24686;DHT22;12804;51.176;4.452;2024-02-15T11:08:37;15.20;99.90
24686;DHT22;12804;51.176;4.452;2024-02-15T11:11:03;15.20;99.90
24686;DHT22;12804;51.176;4.452;2024-02-15T11:13:30;15.40;99.90
24686;DHT22;12804;51.176;4.452;2024-02-15T11:15:56;15.40;99.90
24686;DHT22;12804;51.176;4.452;2024-02-15T11:18:46;15.40;99.90
24686;DHT22;12804;51.176;4.452;2024-02-15T11:24:26;15.70;99.90
24686;DHT22;12804;51.176;4.452;2024-02-15T11:26:59;15.90;99.90
24686;DHT22;12804;51.176;4.452;2024-02-15T11:29:51;16.40;99.90
24686;DHT22;12804;51.176;4.452;2024-02-15T11:32:37;16.90;99.90
24686;DHT22;12804;51.176;4.452;2024-02-15T11:35:19;17.20;81.50
24686;DHT22;12804;51.176;4.452;2024-02-15T11:40:16;17.20;82.40
24686;DHT22;12804;51.176;4.452;2024-02-15T11:42:45;17.40;60.80
24686;DHT22;12804;51.176;4.452;2024-02-15T11:45:12;17.20;72.90
24686;DHT22;12804;51.176;4.452;2024-02-15T11:47:39;16.90;79.60
24686;DHT22;12804;51.176;4.452;2024-02-15T11:50:09;16.70;88.80
24686;DHT22;12804;51.176;4.452;2024-02-15T11:52:39;16.80;86.10
24686;DHT22;12804;51.176;4.452;2024-02-15T11:55:07;16.70;69.50
24686;DHT22;12804;51.176;4.452;2024-02-15T11:57:37;16.80;80.40
24686;DHT22;12804;51.176;4.452;2024-02-15T12:00:26;16.90;82.60
24686;DHT22;12804;51.176;4.452;2024-02-15T12:03:10;17.00;79.60
24686;DHT22;12804;51.176;4.452;2024-02-15T12:05:57;17.10;57.00
24686;DHT22;12804;51.176;4.452;2024-02-15T12:08:49;17.10;67.00
24686;DHT22;12804;51.176;4.452;2024-02-15T12:11:35;17.30;50.40
24686;DHT22;12804;51.176;4.452;2024-02-15T12:14:19;17.30;38.40
24686;DHT22;12804;51.176;4.452;2024-02-15T12:17:04;17.40;37.60
24686;DHT22;12804;51.176;4.452;2024-02-15T12:19:50;17.60;43.80
24686;DHT22;12804;51.176;4.452;2024-02-15T12:24:57;17.70;13.10
24686;DHT22;12804;51.176;4.452;2024-02-15T12:27:24;18.00;4.80
24686;DHT22;12804;51.176;4.452;2024-02-15T12:29:56;18.20;1.00
24686;DHT22;12804;51.176;4.452;2024-02-15T12:32:27;18.40;1.00
24686;DHT22;12804;51.176;4.452;2024-02-15T12:35:08;18.20;1.00
24686;DHT22;12804;51.176;4.452;2024-02-15T12:37:36;18.10;1.00
24686;DHT22;12804;51.176;4.452;2024-02-15T12:40:17;18.20;1.00
24686;DHT22;12804;51.176;4.452;2024-02-15T12:42:44;18.30;1.00
24686;DHT22;12804;51.176;4.452;2024-02-15T12:45:20;18.50;1.00
24686;DHT22;12804;51.176;4.452;2024-02-15T12:47:52;18.20;1.00
24686;DHT22;12804;51.176;4.452;2024-02-15T12:50:20;18.20;1.00
24686;DHT22;12804;51.176;4.452;2024-02-15T12:52:48;18.00;1.00
24686;DHT22;12804;51.176;4.452;2024-02-15T12:55:19;17.70;1.00
24686;DHT22;12804;51.176;4.452;2024-02-15T12:57:50;17.50;1.00
24686;DHT22;12804;51.176;4.452;2024-02-15T13:00:27;17.40;1.00
24686;DHT22;12804;51.176;4.452;2024-02-15T13:02:58;17.40;1.00
24686;DHT22;12804;51.176;4.452;2024-02-15T13:05:27;17.40;1.00
24686;DHT22;12804;51.176;4.452;2024-02-15T13:07:54;17.40;1.00
24686;DHT22;12804;51.176;4.452;2024-02-15T13:10:43;17.60;1.00
24686;DHT22;12804;51.176;4.452;2024-02-15T13:13:09;18.00;1.00
24686;DHT22;12804;51.176;4.452;2024-02-15T13:15:35;18.00;1.00
24686;DHT22;12804;51.176;4.452;2024-02-15T13:18:03;17.90;1.00
24686;DHT22;12804;51.176;4.452;2024-02-15T13:20:30;17.90;1.00
24686;DHT22;12804;51.176;4.452;2024-02-15T13:23:10;17.90;1.00
24686;DHT22;12804;51.176;4.452;2024-02-15T13:25:49;17.90;1.00
24686;DHT22;12804;51.176;4.452;2024-02-15T13:28:15;18.10;1.00
24686;DHT22;12804;51.176;4.452;2024-02-15T13:30:42;18.30;1.00
24686;DHT22;12804;51.176;4.452;2024-02-15T13:33:13;18.00;1.00
24686;DHT22;12804;51.176;4.452;2024-02-15T13:35:39;17.80;1.00
24686;DHT22;12804;51.176;4.452;2024-02-15T13:38:05;17.70;1.00
24686;DHT22;12804;51.176;4.452;2024-02-15T13:40:34;17.80;1.00
24686;DHT22;12804;51.176;4.452;2024-02-15T13:43:01;18.00;1.00
24686;DHT22;12804;51.176;4.452;2024-02-15T13:45:31;18.20;1.00
24686;DHT22;12804;51.176;4.452;2024-02-15T13:47:59;18.40;1.00
24686;DHT22;12804;51.176;4.452;2024-02-15T13:50:29;18.40;1.00
24686;DHT22;12804;51.176;4.452;2024-02-15T13:52:55;18.40;1.00
24686;DHT22;12804;51.176;4.452;2024-02-15T13:55:21;18.30;1.00
24686;DHT22;12804;51.176;4.452;2024-02-15T13:57:48;18.10;1.00
24686;DHT22;12804;51.176;4.452;2024-02-15T14:00:18;18.10;1.00
24686;DHT22;12804;51.176;4.452;2024-02-15T14:02:54;18.40;1.00
24686;DHT22;12804;51.176;4.452;2024-02-15T14:05:24;18.40;1.00
24686;DHT22;12804;51.176;4.452;2024-02-15T14:07:54;18.50;1.00
24686;DHT22;12804;51.176;4.452;2024-02-15T14:10:21;18.50;1.00
24686;DHT22;12804;51.176;4.452;2024-02-15T14:12:51;18.20;1.00
24686;DHT22;12804;51.176;4.452;2024-02-15T14:15:31;18.10;1.00
24686;DHT22;12804;51.176;4.452;2024-02-15T14:18:05;18.30;1.00
24686;DHT22;12804;51.176;4.452;2024-02-15T14:20:31;18.10;1.00
24686;DHT22;12804;51.176;4.452;2024-02-15T14:22:58;18.00;1.00
24686;DHT22;12804;51.176;4.452;2024-02-15T14:25:28;18.00;1.00
24686;DHT22;12804;51.176;4.452;2024-02-15T14:27:57;18.20;1.00
24686;DHT22;12804;51.176;4.452;2024-02-15T14:30:27;18.40;1.00
24686;DHT22;12804;51.176;4.452;2024-02-15T14:33:11;18.30;1.00
24686;DHT22;12804;51.176;4.452;2024-02-15T14:35:41;18.40;1.00
24686;DHT22;12804;51.176;4.452;2024-02-15T14:38:12;18.30;1.00
24686;DHT22;12804;51.176;4.452;2024-02-15T14:40:39;18.50;1.00
24686;DHT22;12804;51.176;4.452;2024-02-15T14:43:06;18.50;99.90
24686;DHT22;12804;51.176;4.452;2024-02-15T14:45:36;18.40;99.90
24686;DHT22;12804;51.176;4.452;2024-02-15T14:48:02;18.10;1.00
24686;DHT22;12804;51.176;4.452;2024-02-15T14:50:28;18.00;1.00
24686;DHT22;12804;51.176;4.452;2024-02-15T14:52:54;18.10;1.00
24686;DHT22;12804;51.176;4.452;2024-02-15T14:55:20;18.20;99.90
24686;DHT22;12804;51.176;4.452;2024-02-15T14:57:47;18.40;99.90
24686;DHT22;12804;51.176;4.452;2024-02-15T15:00:13;18.50;99.90
24686;DHT22;12804;51.176;4.452;2024-02-15T15:02:46;18.70;99.90
24686;DHT22;12804;51.176;4.452;2024-02-15T15:05:13;18.80;99.90
24686;DHT22;12804;51.176;4.452;2024-02-15T15:07:57;19.00;99.90
24686;DHT22;12804;51.176;4.452;2024-02-15T15:10:44;19.10;99.90
24686;DHT22;12804;51.176;4.452;2024-02-15T15:13:28;19.10;1.00
24686;DHT22;12804;51.176;4.452;2024-02-15T15:15:54;18.90;99.90
24686;DHT22;12804;51.176;4.452;2024-02-15T15:18:20;18.80;99.90
24686;DHT22;12804;51.176;4.452;2024-02-15T15:20:47;18.80;99.90
24686;DHT22;12804;51.176;4.452;2024-02-15T15:23:13;18.70;99.90
24686;DHT22;12804;51.176;4.452;2024-02-15T15:25:39;18.60;99.90
24686;DHT22;12804;51.176;4.452;2024-02-15T15:28:09;18.70;99.90
24686;DHT22;12804;51.176;4.452;2024-02-15T15:30:34;18.80;99.90
24686;DHT22;12804;51.176;4.452;2024-02-15T15:33:01;18.90;99.90
24686;DHT22;12804;51.176;4.452;2024-02-15T15:35:28;18.80;99.90
24686;DHT22;12804;51.176;4.452;2024-02-15T15:37:58;18.60;99.90
24686;DHT22;12804;51.176;4.452;2024-02-15T15:40:24;18.10;1.00
24686;DHT22;12804;51.176;4.452;2024-02-15T15:42:51;17.80;1.00
24686;DHT22;12804;51.176;4.452;2024-02-15T15:45:20;17.80;1.00
24686;DHT22;12804;51.176;4.452;2024-02-15T15:47:47;17.80;1.00
24686;DHT22;12804;51.176;4.452;2024-02-15T15:50:13;17.60;1.00
24686;DHT22;12804;51.176;4.452;2024-02-15T15:52:40;17.40;1.00